sensor_id;sensor_type;location;lat;lon;timestamp;P1;durP1;ratioP1;P2;durP2;ratioP2
25023;SDS011;13033;50.936;5.334;2022-08-19T00:00:27;28.98;;;25.90;;
25023;SDS011;13033;50.936;5.334;2022-08-19T00:02:53;31.23;;;27.90;;
25023;SDS011;13033;50.936;5.334;2022-08-19T00:05:19;31.98;;;28.58;;
25023;SDS011;13033;50.936;5.334;2022-08-19T00:07:46;33.33;;;29.98;;
25023;SDS011;13033;50.936;5.334;2022-08-19T00:10:14;36.45;;;29.33;;
25023;SDS011;13033;50.936;5.334;2022-08-19T00:12:41;34.20;;;30.00;;
25023;SDS011;13033;50.936;5.334;2022-08-19T00:15:07;32.90;;;29.55;;
25023;SDS011;13033;50.936;5.334;2022-08-19T00:17:36;37.90;;;31.88;;
25023;SDS011;13033;50.936;5.334;2022-08-19T00:20:03;33.65;;;29.88;;
25023;SDS011;13033;50.936;5.334;2022-08-19T00:22:29;34.28;;;30.58;;
25023;SDS011;13033;50.936;5.334;2022-08-19T00:24:56;34.72;;;30.63;;
25023;SDS011;13033;50.936;5.334;2022-08-19T00:27:22;36.17;;;31.40;;
25023;SDS011;13033;50.936;5.334;2022-08-19T00:29:47;36.28;;;31.92;;
25023;SDS011;13033;50.936;5.334;2022-08-19T00:32:13;34.22;;;30.67;;
25023;SDS011;13033;50.936;5.334;2022-08-19T00:34:39;38.03;;;32.05;;
25023;SDS011;13033;50.936;5.334;2022-08-19T00:37:04;38.47;;;30.60;;
25023;SDS011;13033;50.936;5.334;2022-08-19T00:39:30;33.22;;;29.67;;
25023;SDS011;13033;50.936;5.334;2022-08-19T00:41:56;32.05;;;28.55;;
25023;SDS011;13033;50.936;5.334;2022-08-19T00:44:23;32.22;;;28.25;;
25023;SDS011;13033;50.936;5.334;2022-08-19T00:46:52;30.60;;;27.30;;
25023;SDS011;13033;50.936;5.334;2022-08-19T00:49:23;28.83;;;25.83;;
25023;SDS011;13033;50.936;5.334;2022-08-19T00:51:56;28.98;;;25.92;;
25023;SDS011;13033;50.936;5.334;2022-08-19T00:54:29;30.35;;;25.23;;
25023;SDS011;13033;50.936;5.334;2022-08-19T00:56:56;28.27;;;25.38;;
25023;SDS011;13033;50.936;5.334;2022-08-19T00:59:23;30.02;;;26.42;;
25023;SDS011;13033;50.936;5.334;2022-08-19T01:01:49;30.23;;;26.95;;
25023;SDS011;13033;50.936;5.334;2022-08-19T01:04:14;30.85;;;27.13;;
25023;SDS011;13033;50.936;5.334;2022-08-19T01:06:40;30.65;;;27.33;;
25023;SDS011;13033;50.936;5.334;2022-08-19T01:09:06;32.90;;;27.55;;
25023;SDS011;13033;50.936;5.334;2022-08-19T01:11:33;32.38;;;28.05;;
25023;SDS011;13033;50.936;5.334;2022-08-19T01:14:01;31.48;;;28.17;;
25023;SDS011;13033;50.936;5.334;2022-08-19T01:16:28;34.72;;;29.23;;
25023;SDS011;13033;50.936;5.334;2022-08-19T01:18:57;32.60;;;27.30;;
25023;SDS011;13033;50.936;5.334;2022-08-19T01:21:27;37.53;;;27.58;;
25023;SDS011;13033;50.936;5.334;2022-08-19T01:24:07;32.92;;;28.98;;
25023;SDS011;13033;50.936;5.334;2022-08-19T01:26:37;33.97;;;29.75;;
25023;SDS011;13033;50.936;5.334;2022-08-19T01:29:06;35.88;;;30.48;;
25023;SDS011;13033;50.936;5.334;2022-08-19T01:31:33;40.35;;;31.08;;
25023;SDS011;13033;50.936;5.334;2022-08-19T01:34:00;37.75;;;32.20;;
25023;SDS011;13033;50.936;5.334;2022-08-19T01:36:28;36.35;;;30.20;;
25023;SDS011;13033;50.936;5.334;2022-08-19T01:38:54;34.65;;;30.88;;
25023;SDS011;13033;50.936;5.334;2022-08-19T01:41:20;36.20;;;30.40;;
25023;SDS011;13033;50.936;5.334;2022-08-19T01:43:48;40.85;;;31.15;;
25023;SDS011;13033;50.936;5.334;2022-08-19T01:46:15;38.15;;;32.13;;
25023;SDS011;13033;50.936;5.334;2022-08-19T01:48:41;35.38;;;30.88;;
25023;SDS011;13033;50.936;5.334;2022-08-19T01:51:08;38.03;;;31.80;;
25023;SDS011;13033;50.936;5.334;2022-08-19T01:53:34;38.53;;;30.40;;
25023;SDS011;13033;50.936;5.334;2022-08-19T01:56:01;34.25;;;30.48;;
25023;SDS011;13033;50.936;5.334;2022-08-19T01:58:35;37.05;;;31.40;;
25023;SDS011;13033;50.936;5.334;2022-08-19T02:01:06;39.97;;;32.22;;
25023;SDS011;13033;50.936;5.334;2022-08-19T02:03:33;39.25;;;32.20;;
25023;SDS011;13033;50.936;5.334;2022-08-19T02:06:02;39.30;;;32.38;;
25023;SDS011;13033;50.936;5.334;2022-08-19T02:08:29;41.60;;;32.72;;
25023;SDS011;13033;50.936;5.334;2022-08-19T02:10:56;43.15;;;33.92;;
25023;SDS011;13033;50.936;5.334;2022-08-19T02:13:22;42.70;;;33.78;;
25023;SDS011;13033;50.936;5.334;2022-08-19T02:15:48;46.10;;;35.55;;
25023;SDS011;13033;50.936;5.334;2022-08-19T02:18:14;47.20;;;35.03;;
25023;SDS011;13033;50.936;5.334;2022-08-19T02:20:41;44.97;;;35.08;;
25023;SDS011;13033;50.936;5.334;2022-08-19T02:23:08;45.10;;;34.42;;
25023;SDS011;13033;50.936;5.334;2022-08-19T02:25:36;42.78;;;34.00;;
25023;SDS011;13033;50.936;5.334;2022-08-19T02:28:02;47.83;;;35.50;;
25023;SDS011;13033;50.936;5.334;2022-08-19T02:30:27;46.03;;;33.60;;
25023;SDS011;13033;50.936;5.334;2022-08-19T02:32:53;47.33;;;37.70;;
25023;SDS011;13033;50.936;5.334;2022-08-19T02:35:19;46.50;;;35.75;;
25023;SDS011;13033;50.936;5.334;2022-08-19T02:37:45;45.05;;;36.33;;
25023;SDS011;13033;50.936;5.334;2022-08-19T02:40:30;45.30;;;36.88;;
25023;SDS011;13033;50.936;5.334;2022-08-19T02:43:00;50.13;;;36.65;;
25023;SDS011;13033;50.936;5.334;2022-08-19T02:45:34;49.10;;;37.28;;
25023;SDS011;13033;50.936;5.334;2022-08-19T02:48:02;47.55;;;36.75;;
25023;SDS011;13033;50.936;5.334;2022-08-19T02:50:29;50.28;;;37.90;;
25023;SDS011;13033;50.936;5.334;2022-08-19T02:52:56;47.63;;;38.90;;
25023;SDS011;13033;50.936;5.334;2022-08-19T02:55:22;54.72;;;38.55;;
25023;SDS011;13033;50.936;5.334;2022-08-19T02:57:48;56.88;;;40.72;;
25023;SDS011;13033;50.936;5.334;2022-08-19T03:00:14;55.85;;;40.65;;
25023;SDS011;13033;50.936;5.334;2022-08-19T03:02:40;61.08;;;41.30;;
25023;SDS011;13033;50.936;5.334;2022-08-19T03:05:07;60.30;;;41.03;;
25023;SDS011;13033;50.936;5.334;2022-08-19T03:07:34;60.05;;;41.83;;
25023;SDS011;13033;50.936;5.334;2022-08-19T03:10:01;59.03;;;42.47;;
25023;SDS011;13033;50.936;5.334;2022-08-19T03:12:26;63.03;;;43.33;;
25023;SDS011;13033;50.936;5.334;2022-08-19T03:14:52;59.22;;;43.10;;
25023;SDS011;13033;50.936;5.334;2022-08-19T03:17:18;58.28;;;42.30;;
25023;SDS011;13033;50.936;5.334;2022-08-19T03:19:44;61.70;;;43.30;;
25023;SDS011;13033;50.936;5.334;2022-08-19T03:22:10;67.60;;;43.50;;
25023;SDS011;13033;50.936;5.334;2022-08-19T03:24:36;61.28;;;44.53;;
25023;SDS011;13033;50.936;5.334;2022-08-19T03:27:02;63.88;;;45.45;;
25023;SDS011;13033;50.936;5.334;2022-08-19T03:29:29;65.20;;;44.95;;
25023;SDS011;13033;50.936;5.334;2022-08-19T03:32:00;62.38;;;44.42;;
25023;SDS011;13033;50.936;5.334;2022-08-19T03:34:29;66.45;;;45.42;;
25023;SDS011;13033;50.936;5.334;2022-08-19T03:36:57;71.80;;;47.47;;
25023;SDS011;13033;50.936;5.334;2022-08-19T03:39:27;71.03;;;46.55;;
25023;SDS011;13033;50.936;5.334;2022-08-19T03:41:53;66.03;;;44.88;;
25023;SDS011;13033;50.936;5.334;2022-08-19T03:44:26;66.57;;;45.42;;
25023;SDS011;13033;50.936;5.334;2022-08-19T03:46:53;67.20;;;45.03;;
25023;SDS011;13033;50.936;5.334;2022-08-19T03:49:20;63.50;;;44.15;;
25023;SDS011;13033;50.936;5.334;2022-08-19T03:51:48;65.65;;;45.08;;
25023;SDS011;13033;50.936;5.334;2022-08-19T03:54:15;66.22;;;45.25;;
25023;SDS011;13033;50.936;5.334;2022-08-19T03:56:46;71.95;;;48.72;;
25023;SDS011;13033;50.936;5.334;2022-08-19T03:59:17;69.75;;;47.92;;
25023;SDS011;13033;50.936;5.334;2022-08-19T04:01:45;69.43;;;45.33;;
25023;SDS011;13033;50.936;5.334;2022-08-19T04:04:11;69.00;;;46.63;;
25023;SDS011;13033;50.936;5.334;2022-08-19T04:06:37;71.22;;;48.38;;
25023;SDS011;13033;50.936;5.334;2022-08-19T04:09:04;68.88;;;46.38;;
25023;SDS011;13033;50.936;5.334;2022-08-19T04:11:34;71.95;;;48.22;;
25023;SDS011;13033;50.936;5.334;2022-08-19T04:14:05;73.95;;;46.97;;
25023;SDS011;13033;50.936;5.334;2022-08-19T04:16:31;67.50;;;46.83;;
25023;SDS011;13033;50.936;5.334;2022-08-19T04:18:58;74.32;;;47.90;;
25023;SDS011;13033;50.936;5.334;2022-08-19T04:21:25;73.38;;;47.85;;
25023;SDS011;13033;50.936;5.334;2022-08-19T04:23:52;75.82;;;48.13;;
25023;SDS011;13033;50.936;5.334;2022-08-19T04:26:20;73.97;;;49.17;;
25023;SDS011;13033;50.936;5.334;2022-08-19T04:28:50;75.63;;;48.53;;
25023;SDS011;13033;50.936;5.334;2022-08-19T04:31:20;75.60;;;48.60;;
25023;SDS011;13033;50.936;5.334;2022-08-19T04:33:50;75.15;;;48.00;;
25023;SDS011;13033;50.936;5.334;2022-08-19T04:36:18;77.95;;;48.10;;
25023;SDS011;13033;50.936;5.334;2022-08-19T04:38:56;75.45;;;48.72;;
25023;SDS011;13033;50.936;5.334;2022-08-19T04:41:24;73.13;;;47.38;;
25023;SDS011;13033;50.936;5.334;2022-08-19T04:44:09;74.60;;;47.72;;
25023;SDS011;13033;50.936;5.334;2022-08-19T04:46:35;71.28;;;46.92;;
25023;SDS011;13033;50.936;5.334;2022-08-19T04:49:02;72.07;;;45.00;;
25023;SDS011;13033;50.936;5.334;2022-08-19T04:51:30;70.05;;;45.75;;
25023;SDS011;13033;50.936;5.334;2022-08-19T04:53:57;71.20;;;46.45;;
25023;SDS011;13033;50.936;5.334;2022-08-19T04:56:24;70.60;;;47.03;;
25023;SDS011;13033;50.936;5.334;2022-08-19T04:58:52;76.47;;;48.17;;
25023;SDS011;13033;50.936;5.334;2022-08-19T05:01:23;75.50;;;47.08;;
25023;SDS011;13033;50.936;5.334;2022-08-19T05:03:51;71.80;;;45.90;;
25023;SDS011;13033;50.936;5.334;2022-08-19T05:06:18;73.53;;;47.42;;
25023;SDS011;13033;50.936;5.334;2022-08-19T05:08:45;78.03;;;49.03;;
25023;SDS011;13033;50.936;5.334;2022-08-19T05:11:12;70.55;;;46.67;;
25023;SDS011;13033;50.936;5.334;2022-08-19T05:13:41;69.60;;;47.17;;
25023;SDS011;13033;50.936;5.334;2022-08-19T05:16:08;78.63;;;48.10;;
25023;SDS011;13033;50.936;5.334;2022-08-19T05:18:35;72.75;;;47.42;;
25023;SDS011;13033;50.936;5.334;2022-08-19T05:21:19;83.32;;;49.80;;
25023;SDS011;13033;50.936;5.334;2022-08-19T05:24:05;82.13;;;49.28;;
25023;SDS011;13033;50.936;5.334;2022-08-19T05:26:37;77.20;;;48.85;;
25023;SDS011;13033;50.936;5.334;2022-08-19T05:29:04;79.35;;;51.33;;
25023;SDS011;13033;50.936;5.334;2022-08-19T05:31:32;77.00;;;49.40;;
25023;SDS011;13033;50.936;5.334;2022-08-19T05:33:59;77.22;;;50.95;;
25023;SDS011;13033;50.936;5.334;2022-08-19T05:36:25;83.13;;;51.70;;
25023;SDS011;13033;50.936;5.334;2022-08-19T05:38:52;78.63;;;50.28;;
25023;SDS011;13033;50.936;5.334;2022-08-19T05:41:18;75.85;;;50.03;;
25023;SDS011;13033;50.936;5.334;2022-08-19T05:43:44;74.72;;;48.03;;
25023;SDS011;13033;50.936;5.334;2022-08-19T05:46:15;71.15;;;46.85;;
25023;SDS011;13033;50.936;5.334;2022-08-19T05:48:44;71.95;;;47.38;;
25023;SDS011;13033;50.936;5.334;2022-08-19T05:51:10;71.15;;;47.08;;
25023;SDS011;13033;50.936;5.334;2022-08-19T05:53:36;68.18;;;46.30;;
25023;SDS011;13033;50.936;5.334;2022-08-19T05:56:06;65.22;;;45.40;;
25023;SDS011;13033;50.936;5.334;2022-08-19T05:58:33;63.67;;;43.78;;
25023;SDS011;13033;50.936;5.334;2022-08-19T06:00:59;66.22;;;43.00;;
25023;SDS011;13033;50.936;5.334;2022-08-19T06:03:30;57.60;;;40.00;;
25023;SDS011;13033;50.936;5.334;2022-08-19T06:05:57;64.25;;;42.22;;
25023;SDS011;13033;50.936;5.334;2022-08-19T06:08:24;60.17;;;41.80;;
25023;SDS011;13033;50.936;5.334;2022-08-19T06:10:54;60.97;;;41.92;;
25023;SDS011;13033;50.936;5.334;2022-08-19T06:13:20;56.20;;;40.30;;
25023;SDS011;13033;50.936;5.334;2022-08-19T06:15:46;56.55;;;39.30;;
25023;SDS011;13033;50.936;5.334;2022-08-19T06:18:12;56.22;;;39.13;;
25023;SDS011;13033;50.936;5.334;2022-08-19T06:20:40;60.80;;;39.45;;
25023;SDS011;13033;50.936;5.334;2022-08-19T06:23:06;55.00;;;39.35;;
25023;SDS011;13033;50.936;5.334;2022-08-19T06:25:32;50.63;;;36.50;;
25023;SDS011;13033;50.936;5.334;2022-08-19T06:27:58;52.92;;;36.10;;
25023;SDS011;13033;50.936;5.334;2022-08-19T06:30:23;55.72;;;38.00;;
25023;SDS011;13033;50.936;5.334;2022-08-19T06:32:49;50.95;;;36.22;;
25023;SDS011;13033;50.936;5.334;2022-08-19T06:35:15;51.60;;;34.58;;
25023;SDS011;13033;50.936;5.334;2022-08-19T06:37:40;50.30;;;35.28;;
25023;SDS011;13033;50.936;5.334;2022-08-19T06:40:07;50.90;;;34.58;;
25023;SDS011;13033;50.936;5.334;2022-08-19T06:42:35;49.97;;;34.95;;
25023;SDS011;13033;50.936;5.334;2022-08-19T06:45:03;46.65;;;33.97;;
25023;SDS011;13033;50.936;5.334;2022-08-19T06:47:30;48.05;;;33.67;;
25023;SDS011;13033;50.936;5.334;2022-08-19T06:49:57;48.05;;;30.70;;
25023;SDS011;13033;50.936;5.334;2022-08-19T06:52:37;41.50;;;30.13;;
25023;SDS011;13033;50.936;5.334;2022-08-19T06:55:04;46.08;;;32.33;;
25023;SDS011;13033;50.936;5.334;2022-08-19T06:57:30;43.42;;;30.20;;
25023;SDS011;13033;50.936;5.334;2022-08-19T06:59:57;43.17;;;29.90;;
25023;SDS011;13033;50.936;5.334;2022-08-19T07:02:25;44.50;;;29.35;;
25023;SDS011;13033;50.936;5.334;2022-08-19T07:04:51;43.85;;;27.17;;
25023;SDS011;13033;50.936;5.334;2022-08-19T07:07:17;38.80;;;27.83;;
25023;SDS011;13033;50.936;5.334;2022-08-19T07:09:45;39.72;;;27.58;;
25023;SDS011;13033;50.936;5.334;2022-08-19T07:12:11;37.83;;;25.40;;
25023;SDS011;13033;50.936;5.334;2022-08-19T07:14:40;36.33;;;25.02;;
25023;SDS011;13033;50.936;5.334;2022-08-19T07:17:07;36.17;;;24.13;;
25023;SDS011;13033;50.936;5.334;2022-08-19T07:19:35;37.00;;;24.50;;
25023;SDS011;13033;50.936;5.334;2022-08-19T07:22:02;34.05;;;22.92;;
25023;SDS011;13033;50.936;5.334;2022-08-19T07:24:29;33.22;;;23.25;;
25023;SDS011;13033;50.936;5.334;2022-08-19T07:26:56;34.22;;;23.55;;
25023;SDS011;13033;50.936;5.334;2022-08-19T07:29:26;32.22;;;22.63;;
25023;SDS011;13033;50.936;5.334;2022-08-19T07:31:52;34.10;;;21.83;;
25023;SDS011;13033;50.936;5.334;2022-08-19T07:34:22;31.55;;;22.27;;
25023;SDS011;13033;50.936;5.334;2022-08-19T07:36:49;33.78;;;21.33;;
25023;SDS011;13033;50.936;5.334;2022-08-19T07:39:17;33.25;;;20.52;;
25023;SDS011;13033;50.936;5.334;2022-08-19T07:41:48;35.92;;;18.48;;
25023;SDS011;13033;50.936;5.334;2022-08-19T07:44:15;26.90;;;18.08;;
25023;SDS011;13033;50.936;5.334;2022-08-19T07:46:42;32.55;;;20.10;;
25023;SDS011;13033;50.936;5.334;2022-08-19T07:49:10;34.08;;;20.42;;
25023;SDS011;13033;50.936;5.334;2022-08-19T07:51:42;31.27;;;19.08;;
25023;SDS011;13033;50.936;5.334;2022-08-19T07:54:09;30.48;;;19.55;;
25023;SDS011;13033;50.936;5.334;2022-08-19T07:56:36;32.83;;;19.92;;
25023;SDS011;13033;50.936;5.334;2022-08-19T07:59:03;32.58;;;21.40;;
25023;SDS011;13033;50.936;5.334;2022-08-19T08:01:29;33.72;;;20.95;;
25023;SDS011;13033;50.936;5.334;2022-08-19T08:03:55;35.20;;;21.73;;
25023;SDS011;13033;50.936;5.334;2022-08-19T08:06:40;32.58;;;20.35;;
25023;SDS011;13033;50.936;5.334;2022-08-19T08:09:29;31.13;;;20.40;;
25023;SDS011;13033;50.936;5.334;2022-08-19T08:11:59;30.27;;;19.52;;
25023;SDS011;13033;50.936;5.334;2022-08-19T08:14:48;33.13;;;20.13;;
25023;SDS011;13033;50.936;5.334;2022-08-19T08:17:18;29.70;;;20.10;;
25023;SDS011;13033;50.936;5.334;2022-08-19T08:19:45;25.38;;;18.13;;
25023;SDS011;13033;50.936;5.334;2022-08-19T08:22:14;30.80;;;19.13;;
25023;SDS011;13033;50.936;5.334;2022-08-19T08:25:02;24.73;;;17.40;;
25023;SDS011;13033;50.936;5.334;2022-08-19T08:27:36;24.90;;;18.50;;
25023;SDS011;13033;50.936;5.334;2022-08-19T08:30:05;24.43;;;17.97;;
25023;SDS011;13033;50.936;5.334;2022-08-19T08:32:34;27.25;;;18.00;;
25023;SDS011;13033;50.936;5.334;2022-08-19T08:35:07;26.70;;;17.90;;
25023;SDS011;13033;50.936;5.334;2022-08-19T08:37:41;24.90;;;16.10;;
25023;SDS011;13033;50.936;5.334;2022-08-19T08:40:33;25.25;;;16.08;;
25023;SDS011;13033;50.936;5.334;2022-08-19T08:45:30;22.80;;;16.13;;
25023;SDS011;13033;50.936;5.334;2022-08-19T08:48:00;22.70;;;16.48;;
25023;SDS011;13033;50.936;5.334;2022-08-19T08:50:36;25.88;;;16.50;;
25023;SDS011;13033;50.936;5.334;2022-08-19T08:53:07;19.17;;;15.43;;
25023;SDS011;13033;50.936;5.334;2022-08-19T08:55:35;22.10;;;16.17;;
25023;SDS011;13033;50.936;5.334;2022-08-19T08:58:12;19.50;;;15.27;;
25023;SDS011;13033;50.936;5.334;2022-08-19T09:00:43;21.77;;;14.82;;
25023;SDS011;13033;50.936;5.334;2022-08-19T09:03:20;18.70;;;13.52;;
25023;SDS011;13033;50.936;5.334;2022-08-19T09:06:04;17.90;;;13.10;;
25023;SDS011;13033;50.936;5.334;2022-08-19T09:08:59;17.67;;;12.43;;
25023;SDS011;13033;50.936;5.334;2022-08-19T09:11:42;20.52;;;13.77;;
25023;SDS011;13033;50.936;5.334;2022-08-19T09:17:00;16.38;;;12.75;;
25023;SDS011;13033;50.936;5.334;2022-08-19T09:19:28;15.70;;;10.30;;
25023;SDS011;13033;50.936;5.334;2022-08-19T09:21:55;13.80;;;10.40;;
25023;SDS011;13033;50.936;5.334;2022-08-19T09:24:21;14.48;;;9.38;;
25023;SDS011;13033;50.936;5.334;2022-08-19T09:26:46;16.33;;;10.63;;
25023;SDS011;13033;50.936;5.334;2022-08-19T09:29:12;14.60;;;11.32;;
25023;SDS011;13033;50.936;5.334;2022-08-19T09:31:38;15.27;;;12.65;;
25023;SDS011;13033;50.936;5.334;2022-08-19T09:34:03;14.98;;;11.82;;
25023;SDS011;13033;50.936;5.334;2022-08-19T09:36:29;15.02;;;11.18;;
25023;SDS011;13033;50.936;5.334;2022-08-19T09:38:58;16.98;;;11.98;;
25023;SDS011;13033;50.936;5.334;2022-08-19T09:41:25;14.90;;;10.38;;
25023;SDS011;13033;50.936;5.334;2022-08-19T09:43:52;17.17;;;10.00;;
25023;SDS011;13033;50.936;5.334;2022-08-19T09:46:25;14.20;;;10.10;;
25023;SDS011;13033;50.936;5.334;2022-08-19T09:48:52;16.08;;;10.00;;
25023;SDS011;13033;50.936;5.334;2022-08-19T09:51:23;11.27;;;8.20;;
25023;SDS011;13033;50.936;5.334;2022-08-19T09:53:51;9.55;;;7.57;;
25023;SDS011;13033;50.936;5.334;2022-08-19T09:56:19;13.07;;;7.10;;
25023;SDS011;13033;50.936;5.334;2022-08-19T09:58:46;9.85;;;6.93;;
25023;SDS011;13033;50.936;5.334;2022-08-19T10:01:19;9.02;;;6.40;;
25023;SDS011;13033;50.936;5.334;2022-08-19T10:03:47;9.77;;;6.40;;
25023;SDS011;13033;50.936;5.334;2022-08-19T10:06:20;10.02;;;5.88;;
25023;SDS011;13033;50.936;5.334;2022-08-19T10:08:47;9.82;;;5.97;;
25023;SDS011;13033;50.936;5.334;2022-08-19T10:11:13;9.00;;;5.82;;
25023;SDS011;13033;50.936;5.334;2022-08-19T10:13:41;9.68;;;5.82;;
25023;SDS011;13033;50.936;5.334;2022-08-19T10:16:10;9.32;;;5.45;;
25023;SDS011;13033;50.936;5.334;2022-08-19T10:18:38;9.85;;;5.50;;
25023;SDS011;13033;50.936;5.334;2022-08-19T10:21:17;14.27;;;5.75;;
25023;SDS011;13033;50.936;5.334;2022-08-19T10:23:46;9.88;;;5.55;;
25023;SDS011;13033;50.936;5.334;2022-08-19T10:26:18;8.20;;;5.32;;
25023;SDS011;13033;50.936;5.334;2022-08-19T10:28:46;9.77;;;5.65;;
25023;SDS011;13033;50.936;5.334;2022-08-19T10:31:15;9.13;;;5.47;;
25023;SDS011;13033;50.936;5.334;2022-08-19T10:33:42;9.65;;;5.97;;
25023;SDS011;13033;50.936;5.334;2022-08-19T10:36:18;7.60;;;5.57;;
25023;SDS011;13033;50.936;5.334;2022-08-19T10:38:48;10.02;;;6.38;;
25023;SDS011;13033;50.936;5.334;2022-08-19T10:41:20;8.60;;;5.90;;
25023;SDS011;13033;50.936;5.334;2022-08-19T10:43:50;10.75;;;5.47;;
25023;SDS011;13033;50.936;5.334;2022-08-19T10:46:19;9.57;;;5.18;;
25023;SDS011;13033;50.936;5.334;2022-08-19T10:48:46;9.20;;;5.50;;
25023;SDS011;13033;50.936;5.334;2022-08-19T10:51:12;8.88;;;5.50;;
25023;SDS011;13033;50.936;5.334;2022-08-19T10:53:57;8.75;;;5.53;;
25023;SDS011;13033;50.936;5.334;2022-08-19T10:56:24;9.02;;;6.05;;
25023;SDS011;13033;50.936;5.334;2022-08-19T10:59:09;8.82;;;5.78;;
25023;SDS011;13033;50.936;5.334;2022-08-19T11:01:34;9.70;;;5.10;;
25023;SDS011;13033;50.936;5.334;2022-08-19T11:04:02;7.13;;;4.78;;
25023;SDS011;13033;50.936;5.334;2022-08-19T11:06:29;9.15;;;4.88;;
25023;SDS011;13033;50.936;5.334;2022-08-19T11:08:57;8.10;;;4.60;;
25023;SDS011;13033;50.936;5.334;2022-08-19T11:11:25;6.20;;;4.60;;
25023;SDS011;13033;50.936;5.334;2022-08-19T11:13:51;9.57;;;5.00;;
25023;SDS011;13033;50.936;5.334;2022-08-19T11:16:21;7.68;;;4.70;;
25023;SDS011;13033;50.936;5.334;2022-08-19T11:18:51;7.40;;;5.07;;
25023;SDS011;13033;50.936;5.334;2022-08-19T11:21:20;7.85;;;4.57;;
25023;SDS011;13033;50.936;5.334;2022-08-19T11:23:48;6.82;;;4.50;;
25023;SDS011;13033;50.936;5.334;2022-08-19T11:26:15;9.30;;;5.35;;
25023;SDS011;13033;50.936;5.334;2022-08-19T11:28:42;8.13;;;5.30;;
25023;SDS011;13033;50.936;5.334;2022-08-19T11:31:09;8.80;;;5.82;;
25023;SDS011;13033;50.936;5.334;2022-08-19T11:33:37;8.52;;;4.90;;
25023;SDS011;13033;50.936;5.334;2022-08-19T11:36:02;8.07;;;5.63;;
25023;SDS011;13033;50.936;5.334;2022-08-19T11:38:28;5.95;;;4.78;;
25023;SDS011;13033;50.936;5.334;2022-08-19T11:40:59;9.05;;;5.63;;
25023;SDS011;13033;50.936;5.334;2022-08-19T11:43:29;8.75;;;6.15;;
25023;SDS011;13033;50.936;5.334;2022-08-19T11:45:55;10.45;;;6.30;;
25023;SDS011;13033;50.936;5.334;2022-08-19T11:48:23;9.38;;;5.30;;
25023;SDS011;13033;50.936;5.334;2022-08-19T11:50:50;8.05;;;5.47;;
25023;SDS011;13033;50.936;5.334;2022-08-19T11:53:18;9.77;;;5.38;;
25023;SDS011;13033;50.936;5.334;2022-08-19T11:55:45;8.15;;;4.75;;
25023;SDS011;13033;50.936;5.334;2022-08-19T11:58:12;8.18;;;5.30;;
25023;SDS011;13033;50.936;5.334;2022-08-19T12:00:39;7.60;;;5.38;;
25023;SDS011;13033;50.936;5.334;2022-08-19T12:03:06;6.78;;;4.72;;
25023;SDS011;13033;50.936;5.334;2022-08-19T12:05:32;7.57;;;4.88;;
25023;SDS011;13033;50.936;5.334;2022-08-19T12:07:58;6.00;;;4.40;;
25023;SDS011;13033;50.936;5.334;2022-08-19T12:10:23;6.85;;;4.43;;
25023;SDS011;13033;50.936;5.334;2022-08-19T12:12:49;10.80;;;4.70;;
25023;SDS011;13033;50.936;5.334;2022-08-19T12:15:15;8.32;;;5.00;;
25023;SDS011;13033;50.936;5.334;2022-08-19T12:17:41;8.57;;;4.88;;
25023;SDS011;13033;50.936;5.334;2022-08-19T12:20:08;6.75;;;5.15;;
25023;SDS011;13033;50.936;5.334;2022-08-19T12:22:37;8.82;;;4.72;;
25023;SDS011;13033;50.936;5.334;2022-08-19T12:25:03;6.70;;;4.65;;
25023;SDS011;13033;50.936;5.334;2022-08-19T12:27:30;7.40;;;4.93;;
25023;SDS011;13033;50.936;5.334;2022-08-19T12:29:56;7.50;;;5.20;;
25023;SDS011;13033;50.936;5.334;2022-08-19T12:32:22;6.55;;;5.30;;
25023;SDS011;13033;50.936;5.334;2022-08-19T12:34:49;10.07;;;5.47;;
25023;SDS011;13033;50.936;5.334;2022-08-19T12:37:15;9.20;;;5.50;;
25023;SDS011;13033;50.936;5.334;2022-08-19T12:39:42;7.30;;;5.10;;
25023;SDS011;13033;50.936;5.334;2022-08-19T12:42:09;8.63;;;4.85;;
25023;SDS011;13033;50.936;5.334;2022-08-19T12:44:37;7.85;;;4.68;;
25023;SDS011;13033;50.936;5.334;2022-08-19T12:47:04;7.60;;;4.47;;
25023;SDS011;13033;50.936;5.334;2022-08-19T12:49:32;7.85;;;4.80;;
25023;SDS011;13033;50.936;5.334;2022-08-19T12:51:59;5.88;;;4.13;;
25023;SDS011;13033;50.936;5.334;2022-08-19T12:54:26;5.72;;;3.95;;
25023;SDS011;13033;50.936;5.334;2022-08-19T12:56:52;5.50;;;4.50;;
25023;SDS011;13033;50.936;5.334;2022-08-19T12:59:17;6.47;;;3.90;;
25023;SDS011;13033;50.936;5.334;2022-08-19T13:01:43;8.10;;;4.10;;
25023;SDS011;13033;50.936;5.334;2022-08-19T13:04:09;6.60;;;4.50;;
25023;SDS011;13033;50.936;5.334;2022-08-19T13:06:35;5.70;;;4.55;;
25023;SDS011;13033;50.936;5.334;2022-08-19T13:09:02;8.13;;;4.22;;
25023;SDS011;13033;50.936;5.334;2022-08-19T13:11:28;5.80;;;3.95;;
25023;SDS011;13033;50.936;5.334;2022-08-19T13:13:57;7.35;;;4.07;;
25023;SDS011;13033;50.936;5.334;2022-08-19T13:16:24;6.57;;;4.80;;
25023;SDS011;13033;50.936;5.334;2022-08-19T13:18:51;7.32;;;4.10;;
25023;SDS011;13033;50.936;5.334;2022-08-19T13:21:17;7.88;;;3.85;;
25023;SDS011;13033;50.936;5.334;2022-08-19T13:23:47;4.78;;;4.07;;
25023;SDS011;13033;50.936;5.334;2022-08-19T13:26:14;5.45;;;3.85;;
25023;SDS011;13033;50.936;5.334;2022-08-19T13:28:41;4.88;;;3.80;;
25023;SDS011;13033;50.936;5.334;2022-08-19T13:31:26;4.35;;;3.38;;
25023;SDS011;13033;50.936;5.334;2022-08-19T13:34:12;5.03;;;3.05;;
25023;SDS011;13033;50.936;5.334;2022-08-19T13:36:39;5.93;;;3.10;;
25023;SDS011;13033;50.936;5.334;2022-08-19T13:39:05;7.22;;;2.72;;
25023;SDS011;13033;50.936;5.334;2022-08-19T13:41:35;7.50;;;3.13;;
25023;SDS011;13033;50.936;5.334;2022-08-19T13:44:02;4.03;;;2.85;;
25023;SDS011;13033;50.936;5.334;2022-08-19T13:46:29;5.03;;;2.92;;
25023;SDS011;13033;50.936;5.334;2022-08-19T13:48:55;4.32;;;3.00;;
25023;SDS011;13033;50.936;5.334;2022-08-19T13:51:21;2.67;;;2.33;;
25023;SDS011;13033;50.936;5.334;2022-08-19T13:53:48;4.22;;;3.00;;
25023;SDS011;13033;50.936;5.334;2022-08-19T13:56:15;6.05;;;2.50;;
25023;SDS011;13033;50.936;5.334;2022-08-19T13:58:42;3.15;;;2.83;;
25023;SDS011;13033;50.936;5.334;2022-08-19T14:01:08;3.67;;;2.65;;
25023;SDS011;13033;50.936;5.334;2022-08-19T14:03:34;3.42;;;2.78;;
25023;SDS011;13033;50.936;5.334;2022-08-19T14:06:01;3.92;;;2.63;;
25023;SDS011;13033;50.936;5.334;2022-08-19T14:08:27;5.25;;;2.80;;
25023;SDS011;13033;50.936;5.334;2022-08-19T14:10:57;4.88;;;3.65;;
25023;SDS011;13033;50.936;5.334;2022-08-19T14:13:23;4.60;;;3.00;;
25023;SDS011;13033;50.936;5.334;2022-08-19T14:15:49;5.55;;;3.22;;
25023;SDS011;13033;50.936;5.334;2022-08-19T14:18:15;3.58;;;2.65;;
25023;SDS011;13033;50.936;5.334;2022-08-19T14:20:43;3.92;;;3.50;;
25023;SDS011;13033;50.936;5.334;2022-08-19T14:23:09;3.72;;;3.08;;
25023;SDS011;13033;50.936;5.334;2022-08-19T14:25:37;2.90;;;2.63;;
25023;SDS011;13033;50.936;5.334;2022-08-19T14:28:02;4.32;;;3.30;;
25023;SDS011;13033;50.936;5.334;2022-08-19T14:30:32;4.47;;;3.58;;
25023;SDS011;13033;50.936;5.334;2022-08-19T14:33:00;6.30;;;2.97;;
25023;SDS011;13033;50.936;5.334;2022-08-19T14:35:27;3.42;;;3.13;;
25023;SDS011;13033;50.936;5.334;2022-08-19T14:37:54;5.07;;;3.15;;
25023;SDS011;13033;50.936;5.334;2022-08-19T14:40:21;3.33;;;2.80;;
25023;SDS011;13033;50.936;5.334;2022-08-19T14:42:55;7.25;;;2.90;;